createdAt,value
2022-12-02T00:00:50.556Z,6.05
2022-12-02T00:02:53.066Z,5.60
2022-12-02T00:04:59.120Z,6.32
2022-12-02T00:07:00.784Z,4.82
2022-12-02T00:09:16.869Z,6.43
2022-12-02T00:11:27.819Z,5.65
2022-12-02T00:13:41.841Z,5.10
2022-12-02T00:15:46.036Z,5.78
2022-12-02T00:17:47.760Z,5.10
2022-12-02T00:19:49.396Z,5.05
2022-12-02T00:21:52.177Z,4.88
2022-12-02T00:23:53.775Z,5.13
2022-12-02T00:25:55.482Z,4.30
2022-12-02T00:27:57.639Z,4.70
2022-12-02T00:29:59.258Z,4.78
2022-12-02T00:32:00.943Z,5.22
2022-12-02T00:34:03.198Z,4.13
2022-12-02T00:36:05.380Z,4.25
2022-12-02T00:38:16.039Z,4.03
2022-12-02T00:40:17.876Z,3.95
2022-12-02T00:42:19.515Z,4.47
2022-12-02T00:44:39.650Z,4.97
2022-12-02T00:46:41.231Z,4.63
2022-12-02T00:48:42.915Z,4.60
2022-12-02T00:50:44.522Z,4.88
2022-12-02T00:52:46.112Z,4.35
2022-12-02T00:54:47.958Z,5.07
2022-12-02T00:56:49.727Z,4.15
2022-12-02T00:58:51.426Z,4.13
2022-12-02T01:00:53.251Z,4.32
2022-12-02T01:02:54.900Z,4.93
2022-12-02T01:04:56.537Z,4.68
2022-12-02T01:06:58.203Z,4.20
2022-12-02T01:08:59.911Z,4.45
2022-12-02T01:11:01.598Z,4.90
2022-12-02T01:13:03.279Z,4.72
2022-12-02T01:15:05.523Z,4.90
2022-12-02T01:17:14.345Z,4.55
2022-12-02T01:19:16.599Z,4.55
2022-12-02T01:21:18.208Z,3.90
2022-12-02T01:23:20.036Z,3.97
2022-12-02T01:25:21.765Z,3.90
2022-12-02T01:27:24.463Z,3.95
2022-12-02T01:29:26.157Z,3.72
2022-12-02T01:31:27.832Z,3.95
2022-12-02T01:33:42.060Z,3.80
2022-12-02T01:35:43.713Z,4.20
2022-12-02T01:37:45.488Z,4.63
2022-12-02T01:39:47.085Z,5.60
2022-12-02T01:41:48.793Z,4.70
2022-12-02T01:43:50.524Z,4.60
2022-12-02T01:45:52.918Z,4.80
2022-12-02T01:47:54.774Z,5.43
2022-12-02T01:49:56.530Z,5.93
2022-12-02T01:51:58.277Z,5.43
2022-12-02T01:54:00.062Z,5.78
2022-12-02T01:56:01.801Z,6.15
2022-12-02T01:58:03.835Z,7.20
2022-12-02T02:00:06.874Z,6.13
2022-12-02T02:02:31.848Z,6.70
2022-12-02T02:04:45.850Z,6.53
2022-12-02T02:06:48.176Z,5.78
2022-12-02T02:08:49.973Z,5.82
2022-12-02T02:10:57.685Z,5.82
2022-12-02T02:12:59.766Z,5.70
2022-12-02T02:15:04.215Z,4.30
2022-12-02T02:17:06.010Z,4.57
2022-12-02T02:19:15.327Z,4.50
2022-12-02T02:21:20.894Z,4.50
2022-12-02T02:23:26.613Z,4.55
2022-12-02T02:25:28.297Z,4.38
2022-12-02T02:27:30.207Z,6.22
2022-12-02T02:29:31.930Z,5.60
2022-12-02T02:31:47.182Z,6.35
2022-12-02T02:33:49.388Z,7.25
2022-12-02T02:35:51.567Z,6.72
2022-12-02T02:37:54.667Z,6.75
2022-12-02T02:39:56.251Z,6.95
2022-12-02T02:41:58.006Z,7.07
2022-12-02T02:43:59.608Z,6.55
2022-12-02T02:46:01.727Z,7.35
2022-12-02T02:48:04.978Z,6.32
2022-12-02T02:50:07.835Z,7.18
2022-12-02T02:52:09.506Z,7.07
2022-12-02T02:54:11.232Z,6.25
2022-12-02T02:56:13.095Z,5.85
2022-12-02T02:58:14.895Z,5.60
2022-12-02T03:00:18.389Z,5.88
2022-12-02T03:02:20.471Z,5.60
2022-12-02T03:04:23.406Z,5.75
2022-12-02T03:06:27.362Z,5.45
2022-12-02T03:10:31.095Z,6.57
2022-12-02T03:12:33.017Z,7.00
2022-12-02T03:14:35.260Z,6.95
2022-12-02T03:16:37.170Z,8.02
2022-12-02T03:18:39.956Z,8.48
2022-12-02T03:20:41.687Z,8.88
2022-12-02T03:22:43.371Z,8.98
2022-12-02T03:24:46.114Z,8.68
2022-12-02T03:26:47.708Z,9.32
2022-12-02T03:28:49.961Z,9.85
2022-12-02T03:30:52.033Z,11.00
2022-12-02T03:32:53.969Z,12.65
2022-12-02T03:34:55.631Z,10.48
2022-12-02T03:36:58.332Z,10.50
2022-12-02T03:38:59.949Z,10.02
2022-12-02T03:41:03.415Z,9.98
2022-12-02T03:43:05.173Z,10.00
2022-12-02T03:45:07.441Z,11.35
2022-12-02T03:47:09.093Z,11.20
2022-12-02T03:49:11.745Z,12.70
2022-12-02T03:51:13.993Z,10.88
2022-12-02T03:53:15.702Z,12.00
2022-12-02T03:55:17.710Z,12.13
2022-12-02T03:57:19.449Z,11.98
2022-12-02T03:59:28.824Z,11.82
2022-12-02T04:01:30.841Z,11.35
2022-12-02T04:03:32.734Z,11.15
2022-12-02T04:05:34.565Z,13.75
2022-12-02T04:07:36.295Z,11.50
2022-12-02T04:09:37.951Z,11.90
2022-12-02T04:11:39.612Z,13.88
2022-12-02T04:13:41.237Z,14.38
2022-12-02T04:15:42.988Z,10.77
2022-12-02T04:17:44.649Z,10.85
2022-12-02T04:19:46.281Z,9.25
2022-12-02T04:21:48.001Z,9.98
2022-12-02T04:23:49.584Z,10.75
2022-12-02T04:25:51.225Z,10.80
2022-12-02T04:27:52.919Z,10.30
2022-12-02T04:29:54.679Z,10.93
2022-12-02T04:31:56.439Z,9.75
2022-12-02T04:33:58.154Z,10.27
2022-12-02T04:35:59.841Z,11.05
2022-12-02T04:38:01.516Z,11.63
2022-12-02T04:40:03.892Z,10.20
2022-12-02T04:42:05.647Z,9.95
2022-12-02T04:44:07.304Z,10.05
2022-12-02T04:46:08.988Z,10.68
2022-12-02T04:48:10.720Z,11.02
2022-12-02T04:50:12.724Z,10.65
2022-12-02T04:52:14.571Z,11.68
2022-12-02T04:54:16.196Z,10.80
2022-12-02T04:56:17.804Z,10.45
2022-12-02T04:58:19.467Z,11.02
2022-12-02T05:00:21.356Z,12.10
2022-12-02T05:02:23.037Z,12.25
2022-12-02T05:04:24.844Z,11.50
2022-12-02T05:06:26.567Z,11.68
2022-12-02T05:08:28.235Z,11.80
2022-12-02T05:10:29.854Z,12.63
2022-12-02T05:12:31.523Z,12.10
2022-12-02T05:14:33.238Z,12.25
2022-12-02T05:16:34.875Z,11.15
2022-12-02T05:18:36.496Z,11.25
2022-12-02T05:20:38.348Z,10.95
2022-12-02T05:22:40.456Z,10.60
2022-12-02T05:24:42.151Z,10.02
2022-12-02T05:26:43.936Z,10.05
2022-12-02T05:28:45.511Z,10.82
2022-12-02T05:30:47.148Z,10.50
2022-12-02T05:32:48.996Z,10.00
2022-12-02T05:34:51.015Z,10.98
2022-12-02T05:36:52.856Z,9.90
2022-12-02T05:38:54.670Z,9.98
2022-12-02T05:40:56.704Z,9.93
2022-12-02T05:43:00.663Z,9.73
2022-12-02T05:47:11.579Z,9.75
2022-12-02T05:49:24.030Z,9.55
2022-12-02T05:51:26.224Z,9.55
2022-12-02T05:53:28.618Z,9.20
2022-12-02T05:55:30.520Z,9.00
2022-12-02T05:57:32.411Z,10.27
2022-12-02T05:59:33.992Z,8.32
2022-12-02T06:01:38.184Z,9.35
2022-12-02T06:03:40.053Z,10.02
2022-12-02T06:05:43.294Z,8.90
2022-12-02T06:07:45.435Z,10.63
2022-12-02T06:09:47.265Z,11.50
2022-12-02T06:11:49.407Z,11.25
2022-12-02T06:13:51.177Z,10.80
2022-12-02T06:15:54.217Z,10.57
2022-12-02T06:17:55.860Z,11.20
2022-12-02T06:19:57.873Z,11.00
2022-12-02T06:22:00.369Z,10.45
2022-12-02T06:24:02.055Z,9.63
2022-12-02T06:26:03.718Z,10.18
2022-12-02T06:28:37.076Z,10.60
2022-12-02T06:30:39.836Z,10.32
2022-12-02T06:32:44.576Z,10.52
2022-12-02T06:34:46.806Z,11.70
2022-12-02T06:36:48.624Z,13.88
2022-12-02T06:38:50.246Z,13.68
2022-12-02T06:40:51.869Z,16.08
2022-12-02T06:42:53.766Z,17.10
2022-12-02T06:45:08.005Z,17.48
2022-12-02T06:47:35.082Z,15.75
2022-12-02T06:49:40.183Z,14.10
2022-12-02T06:51:41.824Z,14.90
2022-12-02T06:53:43.471Z,15.43
2022-12-02T06:55:45.285Z,12.05
2022-12-02T06:57:46.974Z,10.75
2022-12-02T06:59:49.341Z,10.15
2022-12-02T07:01:56.243Z,8.88
2022-12-02T07:04:09.953Z,6.88
2022-12-02T07:06:18.602Z,6.75
2022-12-02T07:08:20.546Z,6.97
2022-12-02T07:10:27.569Z,7.25
2022-12-02T07:12:36.836Z,7.07
2022-12-02T07:14:49.053Z,7.47
2022-12-02T07:16:52.026Z,7.43
2022-12-02T07:18:54.352Z,7.53
2022-12-02T07:20:56.647Z,7.45
2022-12-02T07:23:06.465Z,7.30
2022-12-02T07:25:08.030Z,7.53
2022-12-02T07:27:21.198Z,7.43
2022-12-02T07:29:29.993Z,7.80
2022-12-02T07:31:32.402Z,7.10
2022-12-02T07:33:34.185Z,7.72
2022-12-02T07:35:35.788Z,7.45
2022-12-02T07:37:37.472Z,7.18
2022-12-02T07:39:39.181Z,7.22
2022-12-02T07:41:40.808Z,7.63
2022-12-02T07:43:42.436Z,7.95
2022-12-02T07:45:44.188Z,8.35
2022-12-02T07:47:46.199Z,8.65
2022-12-02T07:49:47.768Z,8.98
2022-12-02T07:51:49.592Z,9.52
2022-12-02T07:53:51.242Z,9.50
2022-12-02T07:55:52.873Z,10.55
2022-12-02T07:57:54.668Z,10.25
2022-12-02T07:59:56.430Z,10.82
2022-12-02T08:01:58.068Z,12.02
2022-12-02T08:03:59.959Z,11.10
2022-12-02T08:06:01.717Z,11.43
2022-12-02T08:08:03.671Z,11.40
2022-12-02T08:10:06.789Z,13.35
2022-12-02T08:12:08.384Z,14.75
2022-12-02T08:14:10.016Z,14.63
2022-12-02T08:16:11.902Z,17.67
2022-12-02T08:18:13.685Z,17.02
2022-12-02T08:20:15.315Z,19.13
2022-12-02T08:22:17.090Z,21.60
2022-12-02T08:24:18.785Z,22.73
2022-12-02T08:26:20.523Z,19.10
2022-12-02T08:28:22.144Z,18.52
2022-12-02T08:30:23.754Z,19.45
2022-12-02T08:32:25.420Z,18.90
2022-12-02T08:34:27.049Z,20.00
2022-12-02T08:36:28.762Z,22.30
2022-12-02T08:38:30.452Z,21.05
2022-12-02T08:40:32.066Z,21.52
2022-12-02T08:42:33.711Z,21.85
2022-12-02T08:44:35.555Z,21.98
2022-12-02T08:46:37.295Z,19.88
2022-12-02T08:48:38.957Z,20.95
2022-12-02T08:50:40.998Z,21.48
2022-12-02T08:52:42.639Z,19.65
2022-12-02T08:54:45.726Z,19.70
2022-12-02T08:56:47.737Z,19.77
2022-12-02T08:58:50.449Z,20.13
2022-12-02T09:00:52.092Z,19.25
2022-12-02T09:02:53.979Z,19.27
2022-12-02T09:04:55.627Z,18.00
2022-12-02T09:06:57.221Z,19.38
2022-12-02T09:08:58.970Z,18.92
2022-12-02T09:11:00.861Z,18.95
2022-12-02T09:13:02.495Z,19.40
2022-12-02T09:15:05.060Z,20.08
2022-12-02T09:17:06.749Z,18.75
2022-12-02T09:19:08.454Z,18.75
2022-12-02T09:21:10.108Z,18.23
2022-12-02T09:23:11.788Z,19.15
2022-12-02T09:25:14.515Z,18.88
2022-12-02T09:27:16.443Z,19.42
2022-12-02T09:29:18.152Z,19.63
2022-12-02T09:31:19.892Z,19.98
2022-12-02T09:33:21.715Z,18.67
2022-12-02T09:35:23.313Z,18.77
2022-12-02T09:37:24.976Z,19.63
2022-12-02T09:39:26.698Z,19.38
2022-12-02T09:41:28.612Z,20.00
2022-12-02T09:43:30.955Z,19.50
2022-12-02T09:45:32.602Z,19.67
2022-12-02T09:47:34.654Z,20.17
2022-12-02T09:49:36.441Z,19.02
2022-12-02T09:51:38.088Z,21.23
2022-12-02T09:53:41.237Z,20.40
2022-12-02T09:55:42.943Z,19.17
2022-12-02T09:57:45.433Z,20.90
2022-12-02T09:59:47.041Z,20.50
2022-12-02T10:01:49.702Z,22.17
2022-12-02T10:03:51.957Z,21.10
2022-12-02T10:05:53.847Z,22.88
2022-12-02T10:07:57.803Z,25.13
2022-12-02T10:10:00.830Z,22.90
2022-12-02T10:12:02.596Z,22.93
2022-12-02T10:14:07.071Z,23.65
2022-12-02T10:16:14.076Z,21.45
2022-12-02T10:18:18.758Z,22.50
2022-12-02T10:20:25.934Z,22.23
2022-12-02T10:22:27.580Z,20.85
2022-12-02T10:24:38.017Z,21.25
2022-12-02T10:26:49.507Z,20.75
2022-12-02T10:29:03.826Z,21.38
2022-12-02T10:33:14.629Z,21.33
2022-12-02T10:35:16.387Z,21.90
2022-12-02T10:37:24.463Z,21.70
2022-12-02T10:39:38.247Z,22.13
2022-12-02T10:41:40.324Z,20.60
2022-12-02T10:43:44.400Z,21.90
2022-12-02T10:45:57.556Z,21.75
2022-12-02T10:48:16.155Z,23.08
2022-12-02T10:50:19.042Z,24.15
2022-12-02T10:52:31.548Z,22.88
2022-12-02T10:54:39.537Z,22.90
2022-12-02T10:56:44.510Z,23.90
2022-12-02T10:58:47.776Z,23.42
2022-12-02T11:00:49.530Z,24.58
2022-12-02T11:02:55.107Z,23.25
2022-12-02T11:05:01.553Z,22.60
2022-12-02T11:07:03.449Z,23.15
2022-12-02T11:09:37.989Z,22.85
2022-12-02T11:11:26.661Z,24.15
2022-12-02T11:13:48.188Z,23.20
2022-12-02T11:15:51.656Z,25.88
2022-12-02T11:17:53.375Z,25.70
2022-12-02T11:20:18.947Z,25.05
2022-12-02T11:22:58.314Z,26.90
2022-12-02T11:24:59.926Z,25.35
2022-12-02T11:27:04.099Z,26.63
2022-12-02T11:29:16.898Z,26.35
2022-12-02T11:31:28.152Z,27.58
2022-12-02T11:34:06.044Z,25.45
2022-12-02T11:36:17.605Z,25.58
2022-12-02T11:38:21.360Z,27.02
2022-12-02T11:40:23.015Z,26.60
2022-12-02T11:42:27.245Z,27.17
2022-12-02T11:44:30.065Z,24.75
2022-12-02T11:46:43.667Z,26.15
2022-12-02T11:48:54.447Z,22.00
2022-12-02T11:50:56.102Z,22.42
2022-12-02T11:53:02.238Z,21.58
2022-12-02T11:55:11.354Z,20.67
2022-12-02T11:57:23.403Z,20.33
2022-12-02T11:59:29.738Z,21.42
2022-12-02T12:01:31.756Z,22.20
2022-12-02T12:03:34.440Z,21.13
2022-12-02T12:05:36.717Z,22.67
2022-12-02T12:07:46.642Z,22.30
2022-12-02T12:09:58.167Z,22.50
2022-12-02T12:12:19.545Z,23.13
2022-12-02T12:14:23.767Z,22.15
2022-12-02T12:16:25.817Z,21.65
2022-12-02T12:18:39.933Z,23.27
2022-12-02T12:20:43.305Z,22.65
2022-12-02T12:22:44.861Z,22.75
2022-12-02T12:24:46.477Z,20.63
2022-12-02T12:26:58.134Z,20.42
2022-12-02T12:29:04.925Z,20.52
2022-12-02T12:31:07.261Z,20.52
2022-12-02T12:33:08.912Z,20.80
2022-12-02T12:35:10.557Z,22.65
2022-12-02T12:37:12.370Z,21.42
2022-12-02T12:39:15.209Z,20.90
2022-12-02T12:41:25.814Z,22.17
2022-12-02T12:43:38.702Z,21.50
2022-12-02T12:45:40.304Z,22.23
2022-12-02T12:47:41.989Z,22.27
2022-12-02T12:49:43.733Z,23.00
2022-12-02T12:51:45.343Z,23.50
2022-12-02T12:53:46.970Z,25.45
2022-12-02T12:55:48.904Z,24.08
2022-12-02T12:57:50.613Z,24.92
2022-12-02T12:59:52.320Z,24.25
2022-12-02T13:01:54.478Z,23.38
2022-12-02T13:03:56.133Z,23.35
2022-12-02T13:05:58.116Z,22.75
2022-12-02T13:07:59.937Z,22.83
2022-12-02T13:10:01.865Z,21.52
2022-12-02T13:12:07.249Z,21.48
2022-12-02T13:14:11.568Z,22.77
2022-12-02T13:16:13.270Z,21.67
2022-12-02T13:18:15.259Z,22.60
2022-12-02T13:20:17.521Z,21.30
2022-12-02T13:22:19.117Z,20.77
2022-12-02T13:24:20.701Z,21.77
2022-12-02T13:26:22.458Z,22.23
2022-12-02T13:28:24.088Z,22.70
2022-12-02T13:30:26.097Z,22.67
2022-12-02T13:32:27.901Z,22.48
2022-12-02T13:34:29.558Z,22.67
2022-12-02T13:36:31.225Z,23.95
2022-12-02T13:38:32.829Z,22.92
2022-12-02T13:40:34.722Z,23.88
2022-12-02T13:42:36.370Z,23.50
2022-12-02T13:44:37.921Z,24.30
2022-12-02T13:46:39.542Z,24.15
2022-12-02T13:48:41.228Z,24.42
2022-12-02T13:50:42.862Z,24.15
2022-12-02T13:52:44.566Z,24.85
2022-12-02T13:54:46.176Z,23.88
2022-12-02T13:56:47.788Z,24.95
2022-12-02T13:58:51.169Z,24.55
2022-12-02T14:00:53.278Z,25.58
2022-12-02T14:02:55.069Z,22.42
2022-12-02T14:04:57.664Z,25.95
2022-12-02T14:07:01.768Z,26.00
2022-12-02T14:09:03.840Z,25.33
2022-12-02T14:11:05.660Z,25.17
2022-12-02T14:13:13.423Z,25.73
2022-12-02T14:15:17.795Z,23.58
2022-12-02T14:17:19.342Z,25.88
2022-12-02T14:19:20.958Z,25.10
2022-12-02T14:21:22.613Z,26.63
2022-12-02T14:23:24.474Z,24.70
2022-12-02T14:25:26.082Z,25.45
2022-12-02T14:27:27.755Z,24.80
2022-12-02T14:29:29.508Z,23.63
2022-12-02T14:31:31.181Z,25.85
2022-12-02T14:34:03.050Z,23.98
2022-12-02T14:35:54.592Z,26.30
2022-12-02T14:37:56.204Z,24.70
2022-12-02T14:39:57.824Z,23.52
2022-12-02T14:41:59.571Z,25.20
2022-12-02T14:44:01.212Z,24.75
2022-12-02T14:46:02.824Z,24.45
2022-12-02T14:48:04.564Z,25.38
2022-12-02T14:50:06.956Z,24.75
2022-12-02T14:52:08.727Z,25.58
2022-12-02T14:54:10.381Z,24.92
2022-12-02T14:56:11.998Z,25.10
2022-12-02T14:58:13.640Z,26.55
2022-12-02T15:00:15.697Z,28.65
2022-12-02T15:02:17.714Z,27.90
2022-12-02T15:04:19.374Z,28.20
2022-12-02T15:06:21.003Z,27.95
2022-12-02T15:08:22.703Z,30.42
2022-12-02T15:10:24.302Z,28.50
2022-12-02T15:12:25.997Z,29.42
2022-12-02T15:14:27.762Z,30.50
2022-12-02T15:16:29.736Z,30.55
2022-12-02T15:18:31.368Z,32.55
2022-12-02T15:20:33.112Z,31.55
2022-12-02T15:22:35.027Z,31.98
2022-12-02T15:24:36.644Z,31.70
2022-12-02T15:26:38.322Z,33.03
2022-12-02T15:28:39.874Z,31.10
2022-12-02T15:30:41.454Z,31.30
2022-12-02T15:32:45.079Z,31.20
2022-12-02T15:34:46.668Z,32.88
2022-12-02T15:36:48.396Z,33.63
2022-12-02T15:38:50.059Z,33.95
2022-12-02T15:40:52.281Z,34.15
2022-12-02T15:42:53.929Z,33.55
2022-12-02T15:44:55.771Z,32.58
2022-12-02T15:46:57.711Z,32.10
2022-12-02T15:48:59.359Z,33.25
2022-12-02T15:51:01.262Z,34.45
2022-12-02T15:53:03.263Z,32.42
2022-12-02T15:55:05.267Z,33.45
2022-12-02T15:57:06.987Z,31.38
2022-12-02T15:59:08.639Z,32.72
2022-12-02T16:01:10.292Z,34.20
2022-12-02T16:03:11.961Z,32.53
2022-12-02T16:05:13.575Z,33.97
2022-12-02T16:07:15.483Z,33.47
2022-12-02T16:09:17.183Z,32.80
2022-12-02T16:11:18.894Z,32.80
2022-12-02T16:13:20.523Z,42.00
2022-12-02T16:15:22.273Z,34.50
2022-12-02T16:17:23.878Z,32.72
2022-12-02T16:19:25.486Z,33.65
2022-12-02T16:21:27.234Z,32.95
2022-12-02T16:23:28.857Z,31.73
2022-12-02T16:25:30.608Z,32.67
2022-12-02T16:27:32.341Z,37.03
2022-12-02T16:29:33.959Z,33.75
2022-12-02T16:31:35.678Z,32.15
2022-12-02T16:33:37.396Z,30.85
2022-12-02T16:35:39.221Z,32.72
2022-12-02T16:37:40.843Z,31.23
2022-12-02T16:39:42.474Z,32.60
2022-12-02T16:41:44.109Z,31.80
2022-12-02T16:43:45.667Z,33.92
2022-12-02T16:45:47.426Z,33.97
2022-12-02T16:47:49.057Z,32.55
2022-12-02T16:49:51.142Z,32.65
2022-12-02T16:51:52.829Z,32.30
2022-12-02T16:53:54.502Z,31.02
2022-12-02T16:55:56.111Z,32.33
2022-12-02T16:57:58.119Z,32.90
2022-12-02T16:59:59.769Z,30.02
2022-12-02T17:02:01.520Z,30.30
2022-12-02T17:04:03.358Z,31.67
2022-12-02T17:06:05.186Z,31.27
2022-12-02T17:08:08.208Z,32.38
2022-12-02T17:10:10.408Z,31.25
2022-12-02T17:12:12.078Z,30.92
2022-12-02T17:14:13.664Z,31.20
2022-12-02T17:16:15.418Z,33.28
2022-12-02T17:18:17.088Z,34.63
2022-12-02T17:20:18.773Z,44.25
2022-12-02T17:22:20.502Z,42.45
2022-12-02T17:24:22.213Z,42.42
2022-12-02T17:26:23.851Z,42.70
2022-12-02T17:28:25.818Z,50.55
2022-12-02T17:30:27.445Z,57.05
2022-12-02T17:32:29.014Z,56.40
2022-12-02T17:34:30.701Z,46.20
2022-12-02T17:36:32.356Z,44.22
2022-12-02T17:38:57.599Z,37.80
2022-12-02T17:41:11.462Z,37.05
2022-12-02T17:43:13.128Z,38.60
2022-12-02T17:45:14.806Z,38.83
2022-12-02T17:47:16.650Z,38.70
2022-12-02T17:49:18.263Z,38.97
2022-12-02T17:51:19.930Z,38.72
2022-12-02T17:53:21.593Z,37.97
2022-12-02T17:55:23.184Z,41.17
2022-12-02T17:57:24.848Z,40.60
2022-12-02T17:59:26.424Z,38.97
2022-12-02T18:01:31.365Z,40.45
2022-12-02T18:03:32.989Z,38.90
2022-12-02T18:05:34.616Z,38.05
2022-12-02T18:07:36.383Z,37.60
2022-12-02T18:09:38.983Z,38.22
2022-12-02T18:11:40.643Z,35.17
2022-12-02T18:13:42.569Z,38.13
2022-12-02T18:15:44.479Z,36.13
2022-12-02T18:17:46.098Z,36.75
2022-12-02T18:19:48.019Z,36.28
2022-12-02T18:21:49.617Z,36.05
2022-12-02T18:23:51.194Z,35.65
2022-12-02T18:25:52.810Z,37.17
2022-12-02T18:27:54.466Z,38.13
2022-12-02T18:29:56.207Z,36.40
2022-12-02T18:31:57.897Z,36.95
2022-12-02T18:33:59.879Z,35.22
2022-12-02T18:36:01.584Z,38.33
2022-12-02T18:38:03.196Z,35.85
2022-12-02T18:40:05.479Z,39.03
2022-12-02T18:42:07.390Z,40.20
2022-12-02T18:44:09.066Z,42.53
2022-12-02T18:46:10.871Z,41.75
2022-12-02T18:48:12.563Z,48.17
2022-12-02T18:50:14.551Z,49.35
2022-12-02T18:52:18.977Z,53.60
2022-12-02T18:54:21.354Z,53.42
2022-12-02T18:56:24.670Z,50.80
2022-12-02T18:58:26.499Z,48.90
2022-12-02T19:00:28.125Z,47.97
2022-12-02T19:02:29.834Z,46.15
2022-12-02T19:04:31.750Z,44.03
2022-12-02T19:06:33.396Z,45.58
2022-12-02T19:08:35.093Z,43.05
2022-12-02T19:10:36.807Z,41.00
2022-12-02T19:12:38.496Z,43.85
2022-12-02T19:14:40.116Z,37.78
2022-12-02T19:16:42.116Z,39.05
2022-12-02T19:18:43.781Z,40.53
2022-12-02T19:20:45.475Z,38.05
2022-12-02T19:22:47.153Z,36.25
2022-12-02T19:24:48.928Z,36.72
2022-12-02T19:26:50.663Z,35.15
2022-12-02T19:28:52.514Z,33.88
2022-12-02T19:30:54.232Z,35.42
2022-12-02T19:32:56.020Z,32.92
2022-12-02T19:34:57.713Z,34.50
2022-12-02T19:36:59.375Z,30.58
2022-12-02T19:39:01.078Z,30.27
2022-12-02T19:41:02.994Z,30.33
2022-12-02T19:43:04.669Z,32.10
2022-12-02T19:45:07.023Z,31.67
2022-12-02T19:47:11.207Z,33.60
2022-12-02T19:49:13.236Z,30.83
2022-12-02T19:51:14.831Z,33.83
2022-12-02T19:53:16.909Z,31.30
2022-12-02T19:55:18.602Z,29.45
2022-12-02T19:57:20.163Z,29.80
2022-12-02T19:59:21.838Z,26.98
2022-12-02T20:01:24.031Z,28.60
2022-12-02T20:03:25.832Z,28.63
2022-12-02T20:05:27.739Z,29.23
2022-12-02T20:07:29.420Z,39.88
2022-12-02T20:09:31.456Z,34.70
2022-12-02T20:11:33.114Z,30.15
2022-12-02T20:13:34.752Z,27.63
2022-12-02T20:15:39.254Z,26.08
2022-12-02T20:17:41.334Z,28.63
2022-12-02T20:19:42.928Z,26.48
2022-12-02T20:21:44.602Z,24.92
2022-12-02T20:23:46.264Z,26.33
2022-12-02T20:25:47.887Z,24.08
2022-12-02T20:27:54.203Z,26.55
2022-12-02T20:29:56.559Z,26.40
2022-12-02T20:32:17.088Z,25.55
2022-12-02T20:34:18.689Z,24.15
2022-12-02T20:36:20.347Z,24.88
2022-12-02T20:38:21.919Z,26.42
2022-12-02T20:40:23.570Z,26.00
2022-12-02T20:42:25.256Z,25.48
2022-12-02T20:44:26.958Z,25.60
2022-12-02T20:46:28.822Z,26.67
2022-12-02T20:48:30.424Z,29.35
2022-12-02T20:50:32.221Z,28.13
2022-12-02T20:52:33.868Z,29.48
2022-12-02T20:54:35.582Z,28.25
2022-12-02T20:56:37.605Z,28.80
2022-12-02T20:58:39.318Z,29.15
2022-12-02T21:00:41.066Z,28.75
2022-12-02T21:02:42.823Z,30.13
2022-12-02T21:04:44.794Z,30.50
2022-12-02T21:06:46.371Z,29.92
2022-12-02T21:08:48.120Z,28.33
2022-12-02T21:10:49.757Z,26.70
2022-12-02T21:12:53.668Z,25.08
2022-12-02T21:14:59.141Z,25.95
2022-12-02T21:17:00.717Z,27.27
2022-12-02T21:19:02.581Z,20.90
2022-12-02T21:21:04.450Z,19.48
2022-12-02T21:23:06.164Z,19.92
2022-12-02T21:25:08.223Z,16.08
2022-12-02T21:27:09.909Z,14.70
2022-12-02T21:29:11.534Z,14.13
2022-12-02T21:31:13.491Z,13.95
2022-12-02T21:33:17.202Z,14.88
2022-12-02T21:37:20.529Z,14.27
2022-12-02T21:39:22.551Z,15.05
2022-12-02T21:41:24.243Z,14.73
2022-12-02T21:43:25.855Z,15.93
2022-12-02T21:45:27.890Z,15.98
2022-12-02T21:47:29.566Z,15.98
2022-12-02T21:49:31.246Z,16.92
2022-12-02T21:51:32.968Z,16.25
2022-12-02T21:53:35.738Z,16.55
2022-12-02T21:55:37.335Z,16.27
2022-12-02T21:57:39.256Z,16.05
2022-12-02T21:59:40.940Z,16.17
2022-12-02T22:01:43.418Z,15.68
2022-12-02T22:03:45.397Z,14.45
2022-12-02T22:05:47.009Z,15.02
2022-12-02T22:07:48.674Z,15.48
2022-12-02T22:09:50.479Z,15.52
2022-12-02T22:11:52.069Z,15.68
2022-12-02T22:13:53.800Z,15.75
2022-12-02T22:15:55.720Z,15.60
2022-12-02T22:17:57.397Z,15.48
2022-12-02T22:19:59.532Z,15.95
2022-12-02T22:22:01.305Z,14.60
2022-12-02T22:24:03.411Z,15.57
2022-12-02T22:26:05.256Z,15.35
2022-12-02T22:28:07.393Z,15.23
2022-12-02T22:30:11.020Z,15.93
2022-12-02T22:32:12.735Z,15.32
2022-12-02T22:34:14.392Z,15.05
2022-12-02T22:36:16.052Z,17.02
2022-12-02T22:38:17.713Z,16.65
2022-12-02T22:40:19.308Z,17.25
2022-12-02T22:42:21.004Z,15.13
2022-12-02T22:44:22.661Z,16.00
2022-12-02T22:46:24.431Z,16.08
2022-12-02T22:48:26.151Z,15.23
2022-12-02T22:50:28.105Z,15.48
2022-12-02T22:52:29.792Z,15.23
2022-12-02T22:54:31.456Z,15.77
2022-12-02T22:56:33.326Z,15.45
2022-12-02T22:58:35.025Z,14.48
2022-12-02T23:00:36.763Z,15.60
2022-12-02T23:02:38.389Z,14.73
2022-12-02T23:04:40.197Z,14.55
2022-12-02T23:06:41.844Z,11.82
2022-12-02T23:08:43.508Z,11.55
2022-12-02T23:10:45.124Z,10.93
2022-12-02T23:12:46.852Z,10.77
2022-12-02T23:14:48.424Z,11.95
2022-12-02T23:16:50.173Z,12.07
2022-12-02T23:18:52.058Z,15.32
2022-12-02T23:20:53.617Z,14.40
2022-12-02T23:22:55.318Z,13.43
2022-12-02T23:24:56.856Z,10.90
2022-12-02T23:26:58.461Z,9.75
2022-12-02T23:29:00.218Z,9.48
2022-12-02T23:31:01.874Z,9.20
2022-12-02T23:33:03.514Z,10.43
2022-12-02T23:35:05.762Z,10.15
2022-12-02T23:37:07.423Z,10.65
2022-12-02T23:39:09.134Z,11.07
2022-12-02T23:41:10.707Z,10.73
2022-12-02T23:43:12.371Z,12.23
2022-12-02T23:45:13.967Z,10.57
2022-12-02T23:47:15.716Z,10.02
2022-12-02T23:49:17.358Z,11.10
2022-12-02T23:51:22.414Z,11.30
2022-12-02T23:53:28.400Z,10.93
2022-12-02T23:55:30.055Z,12.63
2022-12-02T23:57:31.675Z,12.13
2022-12-02T23:59:33.296Z,12.50
